createdAt,value
2023-05-19T00:00:37.270Z,58.14
2023-05-19T00:03:04.439Z,58.44
2023-05-19T00:05:31.859Z,57.99
2023-05-19T00:07:59.712Z,57.89
2023-05-19T00:10:26.887Z,58.39
2023-05-19T00:12:55.397Z,58.43
2023-05-19T00:15:22.710Z,58.35
2023-05-19T00:17:49.485Z,59.20
2023-05-19T00:20:16.306Z,59.52
2023-05-19T00:22:42.990Z,59.10
2023-05-19T00:25:10.296Z,59.24
2023-05-19T00:27:37.006Z,59.66
2023-05-19T00:30:06.409Z,59.03
2023-05-19T00:32:33.185Z,59.41
2023-05-19T00:34:59.921Z,59.22
2023-05-19T00:37:26.976Z,58.84
2023-05-19T00:39:53.689Z,58.64
2023-05-19T00:42:21.127Z,58.73
2023-05-19T00:44:47.772Z,59.22
2023-05-19T00:47:15.985Z,59.00
2023-05-19T00:49:42.652Z,59.49
2023-05-19T00:52:09.344Z,59.39
2023-05-19T00:54:36.235Z,59.16
2023-05-19T00:57:03.185Z,60.92
2023-05-19T00:59:29.833Z,59.96
2023-05-19T01:01:56.540Z,60.58
2023-05-19T01:04:24.713Z,60.23
2023-05-19T01:06:51.504Z,60.75
2023-05-19T01:09:18.382Z,61.10
2023-05-19T01:11:45.083Z,61.13
2023-05-19T01:14:11.764Z,60.61
2023-05-19T01:16:40.940Z,60.39
2023-05-19T01:19:17.245Z,60.91
2023-05-19T01:22:06.578Z,59.61
2023-05-19T01:25:23.703Z,60.13
2023-05-19T01:28:09.018Z,59.47
2023-05-19T01:30:37.758Z,59.98
2023-05-19T01:33:06.976Z,60.44
2023-05-19T01:35:35.912Z,60.69
2023-05-19T01:38:04.596Z,61.47
2023-05-19T01:40:32.661Z,61.75
2023-05-19T01:43:01.366Z,61.55
2023-05-19T01:45:29.071Z,62.07
2023-05-19T01:47:58.725Z,61.34
2023-05-19T01:50:25.689Z,61.07
2023-05-19T01:52:52.560Z,62.82
2023-05-19T01:55:19.740Z,64.04
2023-05-19T01:57:51.632Z,63.52
2023-05-19T02:00:24.876Z,62.78
2023-05-19T02:03:00.126Z,64.48
2023-05-19T02:05:27.449Z,63.99
2023-05-19T02:07:55.955Z,64.46
2023-05-19T02:10:24.357Z,63.16
2023-05-19T02:12:53.646Z,63.29
2023-05-19T02:15:22.334Z,62.46
2023-05-19T02:17:50.258Z,61.94
2023-05-19T02:20:18.589Z,61.56
2023-05-19T02:22:45.628Z,61.61
2023-05-19T02:25:12.324Z,62.66
2023-05-19T02:27:39.100Z,62.39
2023-05-19T02:30:07.709Z,62.82
2023-05-19T02:32:35.030Z,63.11
2023-05-19T02:35:01.772Z,62.78
2023-05-19T02:37:29.827Z,62.26
2023-05-19T02:39:56.612Z,61.67
2023-05-19T02:42:23.284Z,61.86
2023-05-19T02:44:50.008Z,61.38
2023-05-19T02:47:16.810Z,61.96
2023-05-19T02:49:43.589Z,61.44
2023-05-19T02:52:10.249Z,61.61
2023-05-19T02:54:38.277Z,61.43
2023-05-19T02:57:05.385Z,61.10
2023-05-19T02:59:32.066Z,62.21
2023-05-19T03:02:00.443Z,61.21
2023-05-19T03:04:27.286Z,61.33
2023-05-19T03:06:53.976Z,60.62
2023-05-19T03:09:20.711Z,61.99
2023-05-19T03:11:48.830Z,62.23
2023-05-19T03:14:15.511Z,62.10
2023-05-19T03:16:42.544Z,62.56
2023-05-19T03:19:09.505Z,61.05
2023-05-19T03:21:36.263Z,61.93
2023-05-19T03:24:03.114Z,62.18
2023-05-19T03:26:29.898Z,62.03
2023-05-19T03:28:57.950Z,62.74
2023-05-19T03:31:24.636Z,62.66
2023-05-19T03:33:51.334Z,61.87
2023-05-19T03:36:18.057Z,62.66
2023-05-19T03:38:44.753Z,63.05
2023-05-19T03:41:11.529Z,62.71
2023-05-19T03:43:38.216Z,62.59
2023-05-19T03:46:06.353Z,62.69
2023-05-19T03:48:33.112Z,62.99
2023-05-19T03:50:59.844Z,63.32
2023-05-19T03:53:26.550Z,62.96
2023-05-19T03:55:53.461Z,63.39
2023-05-19T03:58:20.132Z,63.33
2023-05-19T04:00:46.872Z,62.84
2023-05-19T04:03:15.066Z,63.14
2023-05-19T04:05:41.913Z,63.98
2023-05-19T04:08:08.615Z,63.63
2023-05-19T04:10:35.364Z,64.13
2023-05-19T04:13:02.127Z,64.69
2023-05-19T04:15:29.114Z,63.53
2023-05-19T04:17:56.032Z,62.97
2023-05-19T04:20:24.260Z,62.75
2023-05-19T04:22:50.948Z,63.37
2023-05-19T04:25:17.609Z,63.04
2023-05-19T04:27:44.352Z,62.67
2023-05-19T04:30:11.761Z,62.75
2023-05-19T04:32:38.509Z,62.15
2023-05-19T04:35:05.838Z,62.46
2023-05-19T04:37:33.908Z,61.94
2023-05-19T04:40:00.605Z,62.14
2023-05-19T04:42:27.357Z,61.96
2023-05-19T04:44:54.044Z,61.11
2023-05-19T04:47:20.725Z,60.50
2023-05-19T04:49:47.568Z,60.75
2023-05-19T04:52:14.335Z,61.47
2023-05-19T04:54:42.409Z,62.06
2023-05-19T04:57:09.148Z,61.80
2023-05-19T04:59:36.180Z,61.75
2023-05-19T05:02:02.944Z,62.93
2023-05-19T05:04:29.639Z,62.74
2023-05-19T05:06:56.322Z,62.52
2023-05-19T05:09:23.024Z,62.23
2023-05-19T05:11:51.793Z,61.53
2023-05-19T05:14:18.988Z,61.70
2023-05-19T05:16:46.404Z,60.87
2023-05-19T05:19:13.782Z,60.51
2023-05-19T05:21:41.004Z,60.27
2023-05-19T05:24:09.040Z,61.01
2023-05-19T05:26:36.207Z,60.20
2023-05-19T05:29:04.456Z,60.69
2023-05-19T05:31:31.125Z,59.87
2023-05-19T05:33:57.982Z,59.86
2023-05-19T05:36:24.628Z,59.05
2023-05-19T05:38:51.507Z,60.02
2023-05-19T05:41:18.238Z,59.76
2023-05-19T05:43:44.923Z,60.50
2023-05-19T05:46:13.123Z,60.47
2023-05-19T05:48:40.384Z,59.45
2023-05-19T05:51:08.102Z,58.52
2023-05-19T05:53:37.420Z,57.82
2023-05-19T05:56:04.805Z,59.00
2023-05-19T05:58:31.576Z,60.17
2023-05-19T06:00:58.263Z,59.47
2023-05-19T06:03:26.445Z,58.68
2023-05-19T06:05:53.398Z,57.10
2023-05-19T06:08:20.211Z,56.92
2023-05-19T06:10:47.533Z,56.27
2023-05-19T06:13:14.390Z,56.45
2023-05-19T06:15:41.083Z,55.50
2023-05-19T06:18:07.912Z,55.74
2023-05-19T06:20:36.215Z,55.34
2023-05-19T06:23:03.202Z,53.69
2023-05-19T06:25:29.922Z,53.69
2023-05-19T06:27:56.701Z,52.91
2023-05-19T06:30:23.348Z,53.77
2023-05-19T06:32:50.100Z,55.59
2023-05-19T06:35:16.858Z,54.83
2023-05-19T06:37:44.916Z,56.07
2023-05-19T06:40:12.729Z,53.88
2023-05-19T06:42:39.487Z,52.39
2023-05-19T06:45:07.443Z,53.58
2023-05-19T06:47:34.175Z,53.37
2023-05-19T06:50:00.905Z,53.62
2023-05-19T06:52:27.688Z,54.22
2023-05-19T06:54:55.772Z,54.37
2023-05-19T06:57:22.501Z,53.35
2023-05-19T06:59:49.188Z,55.06
2023-05-19T07:02:15.911Z,54.33
2023-05-19T07:04:42.645Z,53.61
2023-05-19T07:07:09.382Z,50.64
2023-05-19T07:09:36.156Z,51.05
2023-05-19T07:12:04.574Z,49.20
2023-05-19T07:14:31.305Z,48.42
2023-05-19T07:16:58.118Z,49.67
2023-05-19T07:19:24.852Z,48.94
2023-05-19T07:21:51.594Z,48.01
2023-05-19T07:24:18.329Z,48.81
2023-05-19T07:26:45.122Z,48.44
2023-05-19T07:29:13.218Z,49.99
2023-05-19T07:31:39.997Z,48.77
2023-05-19T07:34:06.723Z,47.97
2023-05-19T07:36:33.439Z,48.51
2023-05-19T07:39:00.197Z,49.34
2023-05-19T07:41:27.040Z,48.96
2023-05-19T07:43:53.704Z,49.09
2023-05-19T07:46:21.919Z,48.36
2023-05-19T07:48:48.703Z,48.74
2023-05-19T07:51:15.463Z,50.02
2023-05-19T07:53:42.140Z,50.83
2023-05-19T07:56:08.936Z,50.78
2023-05-19T07:58:35.717Z,51.28
2023-05-19T08:01:02.435Z,51.37
2023-05-19T08:03:30.794Z,50.73
2023-05-19T08:05:57.760Z,51.53
2023-05-19T08:08:24.453Z,50.96
2023-05-19T08:10:51.340Z,50.91
2023-05-19T08:13:18.055Z,51.32
2023-05-19T08:15:44.839Z,50.23
2023-05-19T08:18:11.599Z,49.62
2023-05-19T08:20:39.684Z,50.01
2023-05-19T08:23:06.393Z,51.03
2023-05-19T08:25:33.139Z,52.14
2023-05-19T08:27:59.897Z,53.22
2023-05-19T08:30:26.622Z,54.08
2023-05-19T08:32:53.404Z,52.97
2023-05-19T08:35:20.349Z,51.80
2023-05-19T08:37:48.533Z,51.28
2023-05-19T08:40:17.651Z,52.24
2023-05-19T08:42:44.741Z,51.67
2023-05-19T08:45:11.832Z,51.89
2023-05-19T08:47:38.719Z,51.91
2023-05-19T08:50:08.437Z,50.59
2023-05-19T08:52:57.981Z,50.09
2023-05-19T08:55:34.526Z,49.89
2023-05-19T08:58:01.995Z,49.69
2023-05-19T09:00:29.718Z,51.10
2023-05-19T09:03:05.962Z,50.58
2023-05-19T09:05:38.659Z,51.20
2023-05-19T09:08:05.419Z,52.51
2023-05-19T09:10:33.757Z,52.92
2023-05-19T09:13:00.559Z,52.37
2023-05-19T09:15:27.963Z,52.47
2023-05-19T09:18:06.270Z,53.01
2023-05-19T09:20:33.326Z,52.86
2023-05-19T09:23:00.120Z,52.85
2023-05-19T09:25:26.794Z,52.55
2023-05-19T09:27:55.635Z,51.11
2023-05-19T09:30:23.145Z,49.35
2023-05-19T09:32:51.557Z,49.46
2023-05-19T09:35:18.475Z,49.63
2023-05-19T09:37:45.156Z,49.70
2023-05-19T09:40:14.666Z,50.72
2023-05-19T09:42:42.556Z,50.60
2023-05-19T09:45:10.891Z,50.67
2023-05-19T09:47:38.361Z,49.71
2023-05-19T09:50:06.691Z,50.36
2023-05-19T09:52:35.488Z,50.43
2023-05-19T09:55:02.417Z,49.72
2023-05-19T09:57:33.893Z,49.48
2023-05-19T10:00:00.975Z,49.90
2023-05-19T10:02:30.438Z,50.81
2023-05-19T10:04:57.441Z,52.28
2023-05-19T10:07:24.629Z,52.33
2023-05-19T10:09:52.182Z,52.65
2023-05-19T10:12:19.153Z,51.04
2023-05-19T10:14:45.889Z,51.22
2023-05-19T10:17:13.042Z,51.71
2023-05-19T10:19:41.528Z,51.85
2023-05-19T10:22:08.390Z,50.45
2023-05-19T10:24:35.133Z,49.75
2023-05-19T10:27:09.922Z,50.33
2023-05-19T10:29:39.983Z,50.70
2023-05-19T10:32:11.022Z,51.08
2023-05-19T10:34:57.870Z,51.24
2023-05-19T10:37:51.408Z,51.53
2023-05-19T10:40:28.814Z,50.69
2023-05-19T10:43:10.093Z,51.42
2023-05-19T10:45:42.264Z,52.27
2023-05-19T10:48:11.283Z,52.41
2023-05-19T10:50:39.480Z,53.20
2023-05-19T10:53:14.457Z,53.26
2023-05-19T10:55:50.886Z,52.14
2023-05-19T10:58:49.235Z,51.98
2023-05-19T11:01:17.397Z,52.87
2023-05-19T11:03:48.967Z,51.58
2023-05-19T11:06:21.739Z,51.21
2023-05-19T11:08:53.164Z,50.39
2023-05-19T11:11:19.946Z,51.22
2023-05-19T11:13:47.653Z,50.33
2023-05-19T11:16:14.752Z,49.88
2023-05-19T11:18:41.561Z,50.57
2023-05-19T11:21:08.348Z,49.53
2023-05-19T11:23:38.443Z,49.99
2023-05-19T11:26:06.966Z,50.04
2023-05-19T11:28:34.126Z,48.66
2023-05-19T11:31:00.948Z,48.76
2023-05-19T11:33:27.955Z,48.97
2023-05-19T11:35:56.104Z,51.29
2023-05-19T11:38:25.939Z,50.67
2023-05-19T11:40:54.949Z,53.94
2023-05-19T11:43:23.671Z,52.24
2023-05-19T11:45:50.411Z,49.70
2023-05-19T11:48:17.541Z,50.20
2023-05-19T11:50:44.456Z,49.92
2023-05-19T11:53:12.572Z,49.57
2023-05-19T11:55:42.363Z,50.85
2023-05-19T11:58:17.068Z,50.50
2023-05-19T12:00:45.292Z,49.39
2023-05-19T12:03:12.063Z,50.33
2023-05-19T12:05:43.538Z,51.80
2023-05-19T12:08:10.889Z,51.41
2023-05-19T12:10:38.886Z,51.65
2023-05-19T12:13:05.848Z,50.49
2023-05-19T12:15:34.160Z,51.46
2023-05-19T12:18:02.048Z,53.01
2023-05-19T12:20:29.623Z,53.40
2023-05-19T12:22:56.384Z,52.89
2023-05-19T12:25:23.396Z,51.52
2023-05-19T12:27:50.331Z,51.09
2023-05-19T12:30:17.245Z,49.50
2023-05-19T12:32:46.113Z,49.50
2023-05-19T12:35:12.894Z,50.71
2023-05-19T12:37:41.624Z,50.41
2023-05-19T12:40:09.618Z,50.94
2023-05-19T12:42:47.776Z,51.04
2023-05-19T12:45:27.876Z,53.51
2023-05-19T12:47:56.302Z,51.87
2023-05-19T12:50:32.191Z,51.65
2023-05-19T12:52:59.000Z,50.22
2023-05-19T12:55:27.789Z,51.27
2023-05-19T12:58:13.537Z,49.71
2023-05-19T13:00:40.912Z,50.04
2023-05-19T13:03:15.288Z,51.11
2023-05-19T13:05:43.508Z,51.43
2023-05-19T13:08:11.573Z,50.99
2023-05-19T13:10:39.734Z,50.04
2023-05-19T13:13:07.694Z,48.74
2023-05-19T13:15:40.504Z,50.10
2023-05-19T13:18:10.982Z,50.54
2023-05-19T13:20:38.423Z,50.42
2023-05-19T13:23:05.193Z,49.03
2023-05-19T13:25:33.143Z,50.00
2023-05-19T13:28:00.143Z,50.31
2023-05-19T13:30:27.162Z,49.12
2023-05-19T13:32:54.018Z,49.31
2023-05-19T13:35:22.180Z,48.59
2023-05-19T13:37:57.676Z,49.94
2023-05-19T13:40:24.570Z,49.51
2023-05-19T13:42:51.349Z,49.69
2023-05-19T13:45:18.067Z,48.68
2023-05-19T13:47:44.798Z,47.88
2023-05-19T13:50:11.559Z,48.88
2023-05-19T13:52:39.747Z,47.79
2023-05-19T13:55:07.094Z,48.87
2023-05-19T13:57:33.793Z,50.17
2023-05-19T14:00:02.549Z,50.59
2023-05-19T14:02:30.887Z,49.50
2023-05-19T14:04:57.830Z,48.47
2023-05-19T14:07:24.547Z,49.45
2023-05-19T14:09:52.619Z,50.81
2023-05-19T14:12:20.231Z,50.31
2023-05-19T14:14:50.031Z,49.96
2023-05-19T14:17:16.815Z,48.25
2023-05-19T14:19:43.547Z,48.46
2023-05-19T14:22:10.241Z,47.45
2023-05-19T14:24:36.904Z,46.65
2023-05-19T14:27:05.291Z,47.59
2023-05-19T14:29:32.002Z,48.78
2023-05-19T14:31:58.800Z,48.91
2023-05-19T14:34:25.588Z,47.75
2023-05-19T14:36:52.359Z,47.98
2023-05-19T14:39:19.070Z,48.26
2023-05-19T14:41:45.737Z,49.43
2023-05-19T14:44:13.814Z,49.56
2023-05-19T14:46:40.550Z,48.24
2023-05-19T14:49:07.594Z,47.59
2023-05-19T14:51:34.308Z,48.08
2023-05-19T14:54:01.080Z,47.91
2023-05-19T14:56:27.842Z,47.96
2023-05-19T14:58:54.621Z,48.04
2023-05-19T15:01:26.819Z,47.31
2023-05-19T15:03:53.689Z,47.06
2023-05-19T15:06:20.442Z,48.30
2023-05-19T15:08:47.161Z,48.72
2023-05-19T15:11:13.902Z,48.01
2023-05-19T15:13:40.595Z,47.54
2023-05-19T15:16:17.063Z,48.92
2023-05-19T15:18:45.999Z,49.43
2023-05-19T15:21:12.743Z,49.47
2023-05-19T15:23:39.471Z,49.62
2023-05-19T15:26:06.188Z,49.71
2023-05-19T15:28:32.879Z,49.33
2023-05-19T15:30:59.697Z,49.69
2023-05-19T15:33:26.362Z,49.91
2023-05-19T15:35:54.491Z,50.38
2023-05-19T15:38:21.182Z,51.63
2023-05-19T15:40:47.896Z,51.37
2023-05-19T15:43:14.610Z,50.52
2023-05-19T15:45:41.441Z,49.86
2023-05-19T15:48:08.377Z,50.57
2023-05-19T15:50:35.895Z,48.96
2023-05-19T15:53:04.272Z,48.23
2023-05-19T15:55:31.005Z,47.75
2023-05-19T15:57:57.687Z,47.75
2023-05-19T16:00:24.556Z,47.63
2023-05-19T16:02:51.314Z,48.30
2023-05-19T16:05:18.181Z,48.14
2023-05-19T16:07:44.885Z,48.80
2023-05-19T16:10:13.100Z,48.64
2023-05-19T16:12:39.800Z,49.47
2023-05-19T16:15:07.456Z,50.85
2023-05-19T16:17:34.216Z,49.53
2023-05-19T16:20:00.983Z,50.01
2023-05-19T16:22:27.675Z,51.33
2023-05-19T16:24:54.544Z,51.25
2023-05-19T16:27:22.657Z,49.53
2023-05-19T16:29:49.453Z,51.44
2023-05-19T16:32:16.134Z,53.17
2023-05-19T16:34:42.832Z,53.02
2023-05-19T16:37:09.513Z,52.48
2023-05-19T16:39:36.314Z,51.56
2023-05-19T16:42:03.198Z,51.53
2023-05-19T16:44:31.257Z,51.37
2023-05-19T16:46:57.970Z,49.79
2023-05-19T16:49:24.673Z,50.44
2023-05-19T16:51:51.371Z,51.13
2023-05-19T16:54:18.230Z,51.29
2023-05-19T16:56:44.994Z,51.57
2023-05-19T16:59:11.706Z,52.25
2023-05-19T17:01:39.929Z,51.39
2023-05-19T17:04:06.699Z,50.96
2023-05-19T17:06:33.406Z,50.79
2023-05-19T17:09:00.143Z,50.90
2023-05-19T17:11:26.889Z,49.73
2023-05-19T17:13:53.559Z,49.54
2023-05-19T17:16:20.295Z,51.21
2023-05-19T17:18:48.399Z,52.25
2023-05-19T17:21:15.345Z,51.62
2023-05-19T17:23:42.008Z,52.09
2023-05-19T17:26:08.862Z,51.55
2023-05-19T17:28:35.641Z,52.87
2023-05-19T17:31:09.329Z,52.78
2023-05-19T17:33:36.185Z,51.54
2023-05-19T17:36:05.164Z,51.18
2023-05-19T17:38:34.915Z,50.83
2023-05-19T17:41:02.163Z,50.58
2023-05-19T17:43:29.241Z,50.97
2023-05-19T17:45:56.171Z,51.28
2023-05-19T17:48:23.589Z,50.95
2023-05-19T17:50:50.250Z,51.36
2023-05-19T17:53:19.543Z,52.41
2023-05-19T17:55:50.667Z,52.33
2023-05-19T17:58:18.149Z,52.23
2023-05-19T18:00:45.323Z,51.26
2023-05-19T18:03:12.612Z,51.70
2023-05-19T18:05:39.878Z,51.85
2023-05-19T18:08:07.352Z,52.32
2023-05-19T18:10:37.048Z,51.55
2023-05-19T18:13:03.907Z,51.98
2023-05-19T18:15:31.029Z,51.51
2023-05-19T18:17:57.794Z,51.85
2023-05-19T18:20:24.487Z,52.31
2023-05-19T18:22:51.348Z,52.81
2023-05-19T18:25:18.065Z,52.93
2023-05-19T18:27:46.178Z,52.74
2023-05-19T18:30:12.970Z,52.19
2023-05-19T18:32:39.691Z,52.19
2023-05-19T18:35:07.263Z,52.21
2023-05-19T18:37:34.053Z,52.00
2023-05-19T18:40:00.955Z,53.83
2023-05-19T18:42:27.718Z,54.29
2023-05-19T18:44:55.775Z,53.78
2023-05-19T18:47:22.453Z,53.64
2023-05-19T18:49:49.152Z,54.04
2023-05-19T18:52:16.028Z,53.99
2023-05-19T18:54:42.702Z,53.13
2023-05-19T18:57:09.455Z,53.03
2023-05-19T18:59:36.194Z,53.00
2023-05-19T19:02:04.521Z,53.48
2023-05-19T19:04:31.217Z,54.01
2023-05-19T19:06:57.942Z,54.06
2023-05-19T19:09:24.655Z,54.15
2023-05-19T19:11:51.401Z,54.07
2023-05-19T19:14:18.109Z,54.24
2023-05-19T19:16:44.812Z,54.40
2023-05-19T19:19:12.917Z,54.86
2023-05-19T19:21:39.653Z,54.85
2023-05-19T19:24:06.846Z,55.41
2023-05-19T19:26:33.555Z,54.90
2023-05-19T19:29:00.255Z,54.86
2023-05-19T19:31:27.281Z,55.75
2023-05-19T19:33:54.057Z,55.45
2023-05-19T19:36:22.158Z,55.72
2023-05-19T19:38:48.890Z,55.62
2023-05-19T19:41:15.566Z,55.63
2023-05-19T19:43:42.270Z,55.72
2023-05-19T19:46:09.008Z,55.71
2023-05-19T19:48:35.742Z,55.88
2023-05-19T19:51:02.458Z,55.88
2023-05-19T19:53:30.524Z,55.52
2023-05-19T19:55:58.318Z,55.10
2023-05-19T19:58:25.581Z,56.07
2023-05-19T20:00:56.157Z,56.60
2023-05-19T20:03:23.071Z,56.87
2023-05-19T20:05:50.228Z,56.87
2023-05-19T20:08:20.024Z,56.99
2023-05-19T20:10:48.161Z,56.49
2023-05-19T20:13:14.935Z,56.70
2023-05-19T20:15:42.159Z,56.76
2023-05-19T20:18:09.058Z,56.97
2023-05-19T20:20:35.962Z,57.19
2023-05-19T20:23:02.728Z,56.44
2023-05-19T20:25:29.475Z,57.39
2023-05-19T20:27:57.591Z,57.33
2023-05-19T20:30:24.339Z,56.28
2023-05-19T20:32:57.001Z,56.91
2023-05-19T20:35:26.354Z,56.98
2023-05-19T20:37:53.026Z,57.40
2023-05-19T20:40:19.716Z,57.56
2023-05-19T20:42:46.397Z,57.30
2023-05-19T20:45:14.509Z,57.53
2023-05-19T20:47:41.233Z,57.66
2023-05-19T20:50:08.707Z,58.57
2023-05-19T20:52:36.144Z,58.36
2023-05-19T20:55:03.050Z,58.52
2023-05-19T20:57:29.743Z,57.87
2023-05-19T20:59:56.474Z,58.27
2023-05-19T21:02:24.501Z,58.34
2023-05-19T21:04:51.295Z,58.25
2023-05-19T21:07:18.109Z,58.56
2023-05-19T21:09:44.811Z,58.49
2023-05-19T21:12:11.475Z,58.73
2023-05-19T21:14:38.273Z,58.81
2023-05-19T21:17:05.009Z,59.35
2023-05-19T21:19:33.208Z,58.85
2023-05-19T21:21:59.980Z,59.05
2023-05-19T21:24:26.740Z,59.39
2023-05-19T21:26:53.432Z,59.18
2023-05-19T21:29:20.151Z,58.97
2023-05-19T21:31:46.886Z,58.63
2023-05-19T21:34:13.605Z,58.66
2023-05-19T21:36:41.752Z,58.33
2023-05-19T21:39:08.493Z,58.01
2023-05-19T21:41:35.228Z,58.03
2023-05-19T21:44:01.913Z,58.09
2023-05-19T21:46:28.622Z,57.77
2023-05-19T21:48:55.321Z,58.12
2023-05-19T21:51:22.123Z,58.40
2023-05-19T21:53:50.217Z,58.76
2023-05-19T21:56:16.900Z,59.54
2023-05-19T21:58:43.610Z,59.62
2023-05-19T22:01:10.411Z,59.19
2023-05-19T22:03:37.233Z,58.73
2023-05-19T22:06:04.565Z,58.22
2023-05-19T22:08:31.237Z,59.04
2023-05-19T22:10:59.261Z,59.87
2023-05-19T22:13:26.072Z,59.57
2023-05-19T22:15:52.767Z,59.30
2023-05-19T22:18:19.488Z,58.59
2023-05-19T22:20:46.372Z,59.04
2023-05-19T22:23:13.062Z,59.01
2023-05-19T22:25:39.734Z,58.93
2023-05-19T22:28:07.801Z,59.18
2023-05-19T22:30:34.846Z,58.71
2023-05-19T22:33:01.932Z,59.57
2023-05-19T22:35:28.739Z,58.80
2023-05-19T22:37:55.410Z,59.33
2023-05-19T22:40:22.120Z,58.65
2023-05-19T22:42:48.814Z,59.44
2023-05-19T22:45:17.054Z,59.11
2023-05-19T22:47:43.798Z,59.94
2023-05-19T22:50:10.727Z,59.47
2023-05-19T22:52:37.445Z,59.89
2023-05-19T22:55:04.620Z,59.74
2023-05-19T22:57:31.318Z,58.80
2023-05-19T22:59:57.981Z,58.90
2023-05-19T23:02:26.734Z,58.45
2023-05-19T23:04:53.542Z,59.12
2023-05-19T23:07:20.268Z,59.44
2023-05-19T23:09:46.952Z,59.36
2023-05-19T23:12:13.686Z,59.17
2023-05-19T23:14:40.849Z,59.62
2023-05-19T23:17:07.572Z,61.09
2023-05-19T23:19:35.680Z,61.16
2023-05-19T23:22:02.380Z,60.53
2023-05-19T23:24:29.056Z,60.82
2023-05-19T23:26:55.815Z,60.46
2023-05-19T23:29:22.569Z,60.53
2023-05-19T23:31:49.314Z,60.94
2023-05-19T23:34:16.027Z,60.86
2023-05-19T23:36:44.160Z,61.50
2023-05-19T23:39:10.835Z,60.61
2023-05-19T23:41:37.564Z,60.48
2023-05-19T23:44:04.447Z,60.87
2023-05-19T23:46:31.291Z,60.73
2023-05-19T23:48:58.071Z,60.78
2023-05-19T23:51:24.871Z,59.86
2023-05-19T23:53:52.913Z,60.35
2023-05-19T23:56:19.628Z,61.54
2023-05-19T23:58:46.295Z,61.87
